Aviation Digital Data Service (ADDS)

Output produced by TAFs form (0237 UTC 29 July 2015)
found at http://aviationweather.gov/adds/tafs/
 
KLVS 282339Z 2900/2924 06012KT P6SM VCSH SCT050 BKN080 
     FM290200 02010KT P6SM VCSH SCT020 BKN035 
     FM290900 02007KT P6SM BKN020 
     FM291600 12008KT P6SM SCT020 BKN050